ESGG/GOT METAR and TAF weather

Enter ICAO airport designator
Station Type Date Time Source
ESGG METAR 2019/12/13 22:20 UTC NOAA

ESGG 132220Z 09005KT 3000 BR SCT004 BKN009 OVC013 02/01 Q0984 R03/29//95


Station Type Date Time Source
ESGG Decoded METAR 2019/12/13 22:20 UTC NOAA

Goteborg / Landvetter, Sweden (ESGG) 57-40N 012-18E
Dec 13, 2019 - 05:20 PM EST / 2019.12.13 2220 UTC
Wind: from the E (090 degrees) at 6 MPH (5 KT):0
Visibility: 1 mile(s):0
Sky conditions: overcast
Weather: mist
Temperature: 35 F (2 C)
Windchill: 30 F (-1 C):1
Dew Point: 33 F (1 C)
Relative Humidity: 93%
Pressure (altimeter): 29.06 in. Hg (0984 hPa)
ob: ESGG 132220Z 09005KT 3000 BR SCT004 BKN009 OVC013 02/01 Q0984 R03/29//95
cycle: 22

Station Type Date Time Source
ESGG TAF 2019/12/13 18:09 UTC NOAA

TAF TAF ESGG 131730Z 1318/1418 09008KT 9999 SCT007 BKN015
TEMPO 1318/1409 4000 RADZ BKN004
TEMPO 1414/1418 4000 RASN BKN004

Example: see airport list